createdAt,value
2022-12-27T00:01:04.480Z,-1.4
2022-12-27T00:06:12.171Z,-1.4
2022-12-27T00:11:03.608Z,-1.5
2022-12-27T00:16:15.260Z,-1.6
2022-12-27T00:21:40.551Z,-1.7
2022-12-27T00:27:03.552Z,-1.8
2022-12-27T00:32:09.280Z,-1.8
2022-12-27T00:37:16.593Z,-1.9
2022-12-27T00:42:23.580Z,-1.9
2022-12-27T00:47:45.858Z,-1.9
2022-12-27T00:53:08.392Z,-2
2022-12-27T00:58:15.133Z,-2.1
2022-12-27T01:03:22.826Z,-2.1
2022-12-27T01:08:14.855Z,-2.2
2022-12-27T01:13:21.057Z,-2.3
2022-12-27T01:18:43.562Z,-2.2
2022-12-27T01:24:06.317Z,-2.2
2022-12-27T01:29:12.930Z,-2.2
2022-12-27T01:34:35.919Z,-2.2
2022-12-27T01:39:58.969Z,-2.1
2022-12-27T01:45:20.933Z,-2.1
2022-12-27T01:50:28.124Z,-2.1
2022-12-27T01:55:34.779Z,-2.2
2022-12-27T02:00:41.661Z,-2.2
2022-12-27T02:06:05.022Z,-2.3
2022-12-27T02:11:27.943Z,-2.3
2022-12-27T02:16:51.058Z,-2.4
2022-12-27T02:22:13.172Z,-2.4
2022-12-27T02:27:40.839Z,-2.5
2022-12-27T02:33:04.048Z,-2.5
2022-12-27T02:38:10.978Z,-2.6
2022-12-27T02:43:33.642Z,-2.6
2022-12-27T02:48:58.649Z,-2.7
2022-12-27T02:54:21.528Z,-2.7
2022-12-27T02:59:44.073Z,-2.8
2022-12-27T03:05:12.917Z,-2.8
2022-12-27T03:10:35.665Z,-2.9
2022-12-27T03:15:47.898Z,-2.9
2022-12-27T03:21:10.215Z,-3
2022-12-27T03:26:32.356Z,-3.1
2022-12-27T03:31:55.365Z,-3.1
2022-12-27T03:37:02.389Z,-3.2
2022-12-27T03:42:09.988Z,-3.3
2022-12-27T03:47:33.325Z,-3.3
2022-12-27T03:52:55.144Z,-3.4
2022-12-27T03:58:23.665Z,-3.4
2022-12-27T04:03:17.319Z,-3.5
2022-12-27T04:08:40.063Z,-3.5
2022-12-27T04:14:02.166Z,-3.6
2022-12-27T04:19:25.141Z,-3.6
2022-12-27T04:24:31.682Z,-3.6
2022-12-27T04:29:38.422Z,-3.7
2022-12-27T04:40:09.026Z,-3.8
2022-12-27T04:45:33.153Z,-3.8
2022-12-27T04:50:56.044Z,-3.9
2022-12-27T04:56:18.854Z,-3.9
2022-12-27T05:01:31.498Z,-3.9
2022-12-27T05:06:55.495Z,-3.8
2022-12-27T05:12:02.291Z,-3.7
2022-12-27T05:17:25.585Z,-3.6
2022-12-27T05:22:48.456Z,-3.6
2022-12-27T05:27:56.614Z,-3.6
2022-12-27T05:33:24.943Z,-3.6
2022-12-27T05:38:50.814Z,-3.5
2022-12-27T05:44:13.479Z,-3.4
2022-12-27T05:49:35.321Z,-3.4
2022-12-27T05:55:01.550Z,-3.5
2022-12-27T06:00:24.019Z,-3.6
2022-12-27T06:05:47.201Z,-3.6
2022-12-27T06:11:10.145Z,-3.6
2022-12-27T06:16:33.009Z,-3.5
2022-12-27T06:22:00.526Z,-3.4
2022-12-27T06:27:23.103Z,-3.4
2022-12-27T06:32:45.662Z,-3.3
2022-12-27T06:38:08.994Z,-3.1
2022-12-27T06:43:16.368Z,-2.9
2022-12-27T06:48:24.769Z,-2.5
2022-12-27T06:53:47.383Z,-1.8
2022-12-27T06:59:10.408Z,-0.8
2022-12-27T07:04:34.803Z,1.7
2022-12-27T07:09:57.525Z,6.5
2022-12-27T07:15:20.104Z,10.9
2022-12-27T07:20:42.523Z,13.1
2022-12-27T07:26:09.697Z,13.6
2022-12-27T07:31:32.966Z,14.3
2022-12-27T07:36:57.520Z,16.7
2022-12-27T07:42:25.853Z,20.7
2022-12-27T07:47:49.036Z,24.9
2022-12-27T07:53:18.056Z,28.9
2022-12-27T07:58:45.798Z,32.4
2022-12-27T08:04:09.644Z,37.2
2022-12-27T08:09:32.455Z,33.3
2022-12-27T08:14:39.548Z,30.1
2022-12-27T08:19:46.991Z,33
2022-12-27T08:25:10.298Z,37.1
2022-12-27T08:30:23.366Z,33
2022-12-27T08:36:55.792Z,32.3
2022-12-27T08:42:22.404Z,38.7
2022-12-27T08:47:45.795Z,35.7
2022-12-27T08:53:24.039Z,35.4
2022-12-27T08:58:50.672Z,36.6
2022-12-27T09:03:58.500Z,37.2
2022-12-27T09:09:25.747Z,38.1
2022-12-27T09:14:47.908Z,39.1
2022-12-27T09:20:10.467Z,40.2
2022-12-27T09:25:18.096Z,41.2
2022-12-27T09:30:44.451Z,42.1
2022-12-27T09:35:57.061Z,42.9
2022-12-27T09:41:41.109Z,43.4
2022-12-27T09:47:55.098Z,44
2022-12-27T09:53:22.638Z,44.5
2022-12-27T09:59:23.633Z,44.9
2022-12-27T10:05:35.581Z,45.4
2022-12-27T10:11:02.680Z,46.3
2022-12-27T10:16:30.532Z,46.6
2022-12-27T10:21:53.792Z,47.2
2022-12-27T10:27:07.222Z,47.9
2022-12-27T10:32:30.739Z,48.6
2022-12-27T10:37:54.605Z,49.3
2022-12-27T10:43:17.073Z,49.8
2022-12-27T10:49:11.146Z,50.1
2022-12-27T10:54:42.884Z,49.6
2022-12-27T11:00:11.142Z,48.7
2022-12-27T11:05:35.395Z,49.8
2022-12-27T11:11:02.456Z,50.1
2022-12-27T11:16:30.819Z,50.4
2022-12-27T11:22:01.300Z,50.8
2022-12-27T11:27:27.992Z,51.3
2022-12-27T11:32:50.632Z,51.6
2022-12-27T11:38:15.134Z,50.7
2022-12-27T11:43:39.959Z,43.6
2022-12-27T11:48:53.304Z,39.6
2022-12-27T11:54:01.221Z,36.6
2022-12-27T11:59:23.864Z,34.1
2022-12-27T12:04:49.978Z,31.6
2022-12-27T12:10:18.218Z,29.5
2022-12-27T12:20:50.871Z,26.3
2022-12-27T12:26:13.947Z,24.9
2022-12-27T12:32:14.644Z,23.7
2022-12-27T12:37:37.394Z,22.8
2022-12-27T12:43:00.344Z,21.9
2022-12-27T12:53:39.754Z,20.8
2022-12-27T12:59:06.274Z,21.5
2022-12-27T13:04:30.566Z,22.8
2022-12-27T13:09:59.571Z,22.7
2022-12-27T13:15:29.423Z,21.9
2022-12-27T13:20:36.949Z,21.4
2022-12-27T13:25:59.577Z,20.8
2022-12-27T13:31:22.549Z,20.3
2022-12-27T13:36:49.045Z,19.8
2022-12-27T13:42:11.961Z,19.1
2022-12-27T13:47:38.395Z,18.5
2022-12-27T13:53:00.564Z,18
2022-12-27T13:58:59.771Z,17.5
2022-12-27T14:04:24.682Z,17.9
2022-12-27T14:15:01.397Z,18.3
2022-12-27T14:20:27.133Z,17.6
2022-12-27T14:25:49.798Z,16.9
2022-12-27T14:31:19.345Z,16.3
2022-12-27T14:36:45.095Z,15.7
2022-12-27T14:41:52.135Z,15.2
2022-12-27T14:47:14.815Z,14.6
2022-12-27T14:53:14.679Z,14.1
2022-12-27T14:58:43.471Z,13.6
2022-12-27T15:04:15.019Z,13.1
2022-12-27T15:09:41.405Z,12.8
2022-12-27T15:15:07.132Z,12.3
2022-12-27T15:20:31.851Z,11.9
2022-12-27T15:25:59.587Z,11.6
2022-12-27T15:31:23.695Z,11.3
2022-12-27T15:36:52.832Z,11.1
2022-12-27T15:42:21.435Z,10.8
2022-12-27T15:47:49.301Z,10.6
2022-12-27T15:53:11.825Z,10.3
2022-12-27T15:58:37.924Z,10.1
2022-12-27T16:04:04.224Z,10
2022-12-27T16:08:48.071Z,9.8
2022-12-27T16:14:00.255Z,9.6
2022-12-27T16:18:51.804Z,9.4
2022-12-27T16:23:58.948Z,9.3
2022-12-27T16:29:27.484Z,9.1
2022-12-27T16:34:55.756Z,8.9
2022-12-27T16:40:21.963Z,8.8
2022-12-27T16:45:50.456Z,8.6
2022-12-27T16:50:59.037Z,8.4
2022-12-27T16:56:21.801Z,8.2
2022-12-27T17:01:49.606Z,8
2022-12-27T17:07:59.004Z,7.8
2022-12-27T17:13:22.167Z,7.7
2022-12-27T17:18:45.979Z,7.6
2022-12-27T17:24:12.528Z,7.6
2022-12-27T17:29:21.400Z,7.6
2022-12-27T17:34:48.659Z,7.4
2022-12-27T17:39:31.022Z,7.4
2022-12-27T17:44:42.839Z,7.2
2022-12-27T17:50:10.222Z,7.1
2022-12-27T17:55:18.073Z,7
2022-12-27T18:00:28.573Z,7
2022-12-27T18:05:59.864Z,7.1
2022-12-27T18:16:18.330Z,7.1
2022-12-27T18:21:31.745Z,7.2
2022-12-27T18:26:54.025Z,7.2
2022-12-27T18:32:17.377Z,7.2
2022-12-27T18:37:44.754Z,7.1
2022-12-27T18:43:07.340Z,7.1
2022-12-27T18:48:30.061Z,6.9
2022-12-27T18:53:53.417Z,6.8
2022-12-27T18:59:16.926Z,6.6
2022-12-27T19:04:30.914Z,6.4
2022-12-27T19:09:53.990Z,6.3
2022-12-27T19:15:20.018Z,6.3
2022-12-27T19:20:41.959Z,6.1
2022-12-27T19:26:05.183Z,6.1
2022-12-27T19:31:28.253Z,6.1
2022-12-27T19:36:51.422Z,5.9
2022-12-27T19:42:18.750Z,5.8
2022-12-27T19:47:43.605Z,5.6
2022-12-27T19:53:32.577Z,5.4
2022-12-27T19:59:05.288Z,5.3
2022-12-27T20:04:31.536Z,5.3
2022-12-27T20:10:48.778Z,5.1
2022-12-27T20:15:56.454Z,5
2022-12-27T20:21:23.987Z,4.9
2022-12-27T20:26:46.426Z,4.9
2022-12-27T20:32:18.329Z,4.9
2022-12-27T20:37:25.754Z,4.9
2022-12-27T20:42:48.256Z,4.9
2022-12-27T20:48:11.649Z,4.9
2022-12-27T20:53:39.345Z,4.8
2022-12-27T20:59:02.000Z,4.8
2022-12-27T21:04:35.162Z,4.8
2022-12-27T21:10:02.710Z,4.8
2022-12-27T21:15:25.070Z,4.7
2022-12-27T21:20:49.768Z,4.6
2022-12-27T21:26:16.411Z,4.6
2022-12-27T21:31:45.333Z,4.5
2022-12-27T21:36:53.558Z,4.5
2022-12-27T21:42:19.570Z,4.5
2022-12-27T21:47:44.222Z,4.4
2022-12-27T21:53:13.897Z,4.3
2022-12-27T21:58:21.117Z,4.3
2022-12-27T22:03:57.535Z,4.3
2022-12-27T22:09:24.016Z,4.3
2022-12-27T22:14:35.106Z,4.4
2022-12-27T22:19:59.457Z,4.4
2022-12-27T22:25:22.395Z,4.4
2022-12-27T22:30:31.274Z,4.4
2022-12-27T22:35:38.440Z,4.5
2022-12-27T22:41:32.198Z,4.6
2022-12-27T22:47:15.552Z,4.6
2022-12-27T22:52:30.517Z,4.7
2022-12-27T22:58:32.403Z,4.8
2022-12-27T23:03:56.367Z,4.9
2022-12-27T23:09:39.278Z,4.9
2022-12-27T23:15:03.878Z,4.9
2022-12-27T23:19:55.639Z,5
2022-12-27T23:25:56.379Z,5.1
2022-12-27T23:31:19.398Z,5.1
2022-12-27T23:37:05.206Z,5.1
2022-12-27T23:41:56.795Z,5.2
2022-12-27T23:48:02.436Z,5.3
2022-12-27T23:52:41.108Z,5.4
2022-12-27T23:58:15.812Z,5.4
